sensor_id;sensor_type;location;lat;lon;timestamp;temperature;humidity
4596;DHT22;2310;49.978;8.742;2023-07-31T00:01:11;19.60;99.90
4596;DHT22;2310;49.978;8.742;2023-07-31T00:05:12;19.40;99.90
4596;DHT22;2310;49.978;8.742;2023-07-31T00:09:14;19.40;99.90
4596;DHT22;2310;49.978;8.742;2023-07-31T00:13:15;19.40;99.90
4596;DHT22;2310;49.978;8.742;2023-07-31T00:17:17;19.40;99.90
4596;DHT22;2310;49.978;8.742;2023-07-31T00:21:19;19.20;99.90
4596;DHT22;2310;49.978;8.742;2023-07-31T00:25:20;19.40;99.90
4596;DHT22;2310;49.978;8.742;2023-07-31T00:29:21;19.30;99.90
4596;DHT22;2310;49.978;8.742;2023-07-31T00:33:23;19.30;99.90
4596;DHT22;2310;49.978;8.742;2023-07-31T00:37:24;19.40;99.90
4596;DHT22;2310;49.978;8.742;2023-07-31T00:41:25;19.50;99.90
4596;DHT22;2310;49.978;8.742;2023-07-31T00:45:27;19.50;99.90
4596;DHT22;2310;49.978;8.742;2023-07-31T00:49:29;19.50;99.90
4596;DHT22;2310;49.978;8.742;2023-07-31T00:53:31;19.50;99.90
4596;DHT22;2310;49.978;8.742;2023-07-31T00:57:33;19.50;99.90
4596;DHT22;2310;49.978;8.742;2023-07-31T01:01:36;19.60;99.90
4596;DHT22;2310;49.978;8.742;2023-07-31T01:10:20;19.80;99.90
4596;DHT22;2310;49.978;8.742;2023-07-31T01:14:18;19.60;99.90
4596;DHT22;2310;49.978;8.742;2023-07-31T01:18:20;19.60;99.90
4596;DHT22;2310;49.978;8.742;2023-07-31T01:27:01;19.80;99.90
4596;DHT22;2310;49.978;8.742;2023-07-31T01:31:02;19.80;99.90
4596;DHT22;2310;49.978;8.742;2023-07-31T01:35:06;19.60;99.90
4596;DHT22;2310;49.978;8.742;2023-07-31T01:39:08;19.50;99.90
4596;DHT22;2310;49.978;8.742;2023-07-31T01:43:10;19.60;99.90
4596;DHT22;2310;49.978;8.742;2023-07-31T01:47:11;19.80;99.90
4596;DHT22;2310;49.978;8.742;2023-07-31T01:51:13;19.80;99.90
4596;DHT22;2310;49.978;8.742;2023-07-31T01:55:14;19.70;99.90
4596;DHT22;2310;49.978;8.742;2023-07-31T01:59:16;19.70;99.90
4596;DHT22;2310;49.978;8.742;2023-07-31T02:03:17;19.70;99.90
4596;DHT22;2310;49.978;8.742;2023-07-31T02:07:19;19.60;99.90
4596;DHT22;2310;49.978;8.742;2023-07-31T02:11:20;19.70;99.90
4596;DHT22;2310;49.978;8.742;2023-07-31T02:15:21;19.70;99.90
4596;DHT22;2310;49.978;8.742;2023-07-31T02:19:23;19.70;99.90
4596;DHT22;2310;49.978;8.742;2023-07-31T02:23:24;19.80;99.90
4596;DHT22;2310;49.978;8.742;2023-07-31T02:27:25;19.80;99.90
4596;DHT22;2310;49.978;8.742;2023-07-31T02:31:28;20.00;99.90
4596;DHT22;2310;49.978;8.742;2023-07-31T02:35:30;19.90;99.90
4596;DHT22;2310;49.978;8.742;2023-07-31T02:39:31;19.80;99.90
4596;DHT22;2310;49.978;8.742;2023-07-31T02:43:32;19.70;99.90
4596;DHT22;2310;49.978;8.742;2023-07-31T02:47:34;19.60;99.90
4596;DHT22;2310;49.978;8.742;2023-07-31T02:51:35;19.70;99.90
4596;DHT22;2310;49.978;8.742;2023-07-31T02:55:37;19.80;99.90
4596;DHT22;2310;49.978;8.742;2023-07-31T02:59:38;19.70;99.90
4596;DHT22;2310;49.978;8.742;2023-07-31T03:03:41;19.70;99.90
4596;DHT22;2310;49.978;8.742;2023-07-31T03:07:43;19.70;99.90
4596;DHT22;2310;49.978;8.742;2023-07-31T03:11:44;19.50;99.90
4596;DHT22;2310;49.978;8.742;2023-07-31T03:15:45;19.50;99.90
4596;DHT22;2310;49.978;8.742;2023-07-31T03:19:47;19.70;99.90
4596;DHT22;2310;49.978;8.742;2023-07-31T03:23:48;19.80;99.90
4596;DHT22;2310;49.978;8.742;2023-07-31T03:27:49;19.70;99.90
4596;DHT22;2310;49.978;8.742;2023-07-31T03:31:51;19.30;99.90
4596;DHT22;2310;49.978;8.742;2023-07-31T03:35:53;19.20;99.90
4596;DHT22;2310;49.978;8.742;2023-07-31T03:39:54;19.00;99.90
4596;DHT22;2310;49.978;8.742;2023-07-31T03:43:56;19.00;99.90
4596;DHT22;2310;49.978;8.742;2023-07-31T03:47:57;18.90;99.90
4596;DHT22;2310;49.978;8.742;2023-07-31T03:51:59;18.80;99.90
4596;DHT22;2310;49.978;8.742;2023-07-31T03:56:00;18.90;99.90
4596;DHT22;2310;49.978;8.742;2023-07-31T04:00:02;19.00;99.90
4596;DHT22;2310;49.978;8.742;2023-07-31T04:04:03;18.70;99.90
4596;DHT22;2310;49.978;8.742;2023-07-31T04:08:05;18.70;99.90
4596;DHT22;2310;49.978;8.742;2023-07-31T04:12:07;18.70;99.90
4596;DHT22;2310;49.978;8.742;2023-07-31T04:16:08;18.70;99.90
4596;DHT22;2310;49.978;8.742;2023-07-31T04:20:10;18.70;99.90
4596;DHT22;2310;49.978;8.742;2023-07-31T04:24:11;18.60;99.90
4596;DHT22;2310;49.978;8.742;2023-07-31T04:28:13;18.40;99.90
4596;DHT22;2310;49.978;8.742;2023-07-31T04:32:14;18.50;99.90
4596;DHT22;2310;49.978;8.742;2023-07-31T04:36:19;18.60;99.90
4596;DHT22;2310;49.978;8.742;2023-07-31T04:40:21;18.60;99.90
4596;DHT22;2310;49.978;8.742;2023-07-31T04:44:23;18.70;99.90
4596;DHT22;2310;49.978;8.742;2023-07-31T04:48:24;18.90;99.90
4596;DHT22;2310;49.978;8.742;2023-07-31T04:52:26;19.00;99.90
4596;DHT22;2310;49.978;8.742;2023-07-31T04:56:27;18.80;99.90
4596;DHT22;2310;49.978;8.742;2023-07-31T05:00:29;18.80;99.90
4596;DHT22;2310;49.978;8.742;2023-07-31T05:04:30;18.70;99.90
4596;DHT22;2310;49.978;8.742;2023-07-31T05:08:32;18.70;99.90
4596;DHT22;2310;49.978;8.742;2023-07-31T05:12:34;18.80;99.90
4596;DHT22;2310;49.978;8.742;2023-07-31T05:16:36;18.70;99.90
4596;DHT22;2310;49.978;8.742;2023-07-31T05:20:37;18.70;99.90
4596;DHT22;2310;49.978;8.742;2023-07-31T05:24:38;18.90;99.90
4596;DHT22;2310;49.978;8.742;2023-07-31T05:28:40;18.90;99.90
4596;DHT22;2310;49.978;8.742;2023-07-31T05:32:41;18.90;99.90
4596;DHT22;2310;49.978;8.742;2023-07-31T05:36:43;19.10;99.90
4596;DHT22;2310;49.978;8.742;2023-07-31T05:40:44;19.00;99.90
4596;DHT22;2310;49.978;8.742;2023-07-31T05:44:45;19.20;99.90
4596;DHT22;2310;49.978;8.742;2023-07-31T05:48:48;19.20;99.90
4596;DHT22;2310;49.978;8.742;2023-07-31T05:52:49;19.10;99.90
4596;DHT22;2310;49.978;8.742;2023-07-31T05:56:51;19.30;99.90
4596;DHT22;2310;49.978;8.742;2023-07-31T06:00:52;19.40;99.90
4596;DHT22;2310;49.978;8.742;2023-07-31T06:04:53;19.30;99.90
4596;DHT22;2310;49.978;8.742;2023-07-31T06:08:55;19.40;99.90
4596;DHT22;2310;49.978;8.742;2023-07-31T06:12:57;19.50;99.90
4596;DHT22;2310;49.978;8.742;2023-07-31T06:16:59;19.40;99.90
4596;DHT22;2310;49.978;8.742;2023-07-31T06:21:01;19.50;99.90
4596;DHT22;2310;49.978;8.742;2023-07-31T06:25:02;19.40;99.90
4596;DHT22;2310;49.978;8.742;2023-07-31T06:29:04;19.70;99.90
4596;DHT22;2310;49.978;8.742;2023-07-31T06:33:05;19.80;99.90
4596;DHT22;2310;49.978;8.742;2023-07-31T06:37:07;19.90;99.90
4596;DHT22;2310;49.978;8.742;2023-07-31T06:41:08;20.00;99.90
4596;DHT22;2310;49.978;8.742;2023-07-31T06:45:10;20.10;99.90
4596;DHT22;2310;49.978;8.742;2023-07-31T06:49:11;20.00;99.90
4596;DHT22;2310;49.978;8.742;2023-07-31T06:53:15;19.80;99.90
4596;DHT22;2310;49.978;8.742;2023-07-31T06:57:16;19.90;99.90
4596;DHT22;2310;49.978;8.742;2023-07-31T07:01:18;20.00;99.90
4596;DHT22;2310;49.978;8.742;2023-07-31T07:05:19;20.20;99.90
4596;DHT22;2310;49.978;8.742;2023-07-31T07:09:21;20.40;99.90
4596;DHT22;2310;49.978;8.742;2023-07-31T07:13:22;20.50;99.90
4596;DHT22;2310;49.978;8.742;2023-07-31T07:17:25;20.40;99.90
4596;DHT22;2310;49.978;8.742;2023-07-31T07:21:26;20.20;99.90
4596;DHT22;2310;49.978;8.742;2023-07-31T07:25:28;20.40;99.90
4596;DHT22;2310;49.978;8.742;2023-07-31T07:29:29;20.10;99.90
4596;DHT22;2310;49.978;8.742;2023-07-31T07:33:31;20.30;99.90
4596;DHT22;2310;49.978;8.742;2023-07-31T07:37:32;20.60;99.90
4596;DHT22;2310;49.978;8.742;2023-07-31T07:41:34;21.10;99.90
4596;DHT22;2310;49.978;8.742;2023-07-31T07:45:36;21.60;99.90
4596;DHT22;2310;49.978;8.742;2023-07-31T07:49:37;21.90;99.90
4596;DHT22;2310;49.978;8.742;2023-07-31T07:53:38;21.80;99.90
4596;DHT22;2310;49.978;8.742;2023-07-31T07:57:40;21.30;99.90
4596;DHT22;2310;49.978;8.742;2023-07-31T08:01:41;21.40;99.90
4596;DHT22;2310;49.978;8.742;2023-07-31T08:05:43;21.30;99.90
4596;DHT22;2310;49.978;8.742;2023-07-31T08:09:45;21.60;99.90
4596;DHT22;2310;49.978;8.742;2023-07-31T08:13:46;21.50;99.90
4596;DHT22;2310;49.978;8.742;2023-07-31T08:17:47;21.70;99.90
4596;DHT22;2310;49.978;8.742;2023-07-31T08:21:49;21.90;99.90
4596;DHT22;2310;49.978;8.742;2023-07-31T08:25:50;21.70;99.90
4596;DHT22;2310;49.978;8.742;2023-07-31T08:29:52;21.70;99.90
4596;DHT22;2310;49.978;8.742;2023-07-31T08:33:53;21.20;99.90
4596;DHT22;2310;49.978;8.742;2023-07-31T08:37:55;21.00;99.90
4596;DHT22;2310;49.978;8.742;2023-07-31T08:42:00;21.60;99.90
4596;DHT22;2310;49.978;8.742;2023-07-31T08:46:01;21.20;99.90
4596;DHT22;2310;49.978;8.742;2023-07-31T08:50:04;21.50;99.90
4596;DHT22;2310;49.978;8.742;2023-07-31T08:54:06;21.80;99.90
4596;DHT22;2310;49.978;8.742;2023-07-31T08:58:08;21.90;99.90
4596;DHT22;2310;49.978;8.742;2023-07-31T09:02:10;21.80;99.90
4596;DHT22;2310;49.978;8.742;2023-07-31T09:06:13;22.20;99.90
4596;DHT22;2310;49.978;8.742;2023-07-31T09:10:16;22.70;99.90
4596;DHT22;2310;49.978;8.742;2023-07-31T09:14:18;22.60;99.90
4596;DHT22;2310;49.978;8.742;2023-07-31T09:18:20;22.50;99.90
4596;DHT22;2310;49.978;8.742;2023-07-31T09:22:34;22.70;99.90
4596;DHT22;2310;49.978;8.742;2023-07-31T09:26:37;22.60;99.90
4596;DHT22;2310;49.978;8.742;2023-07-31T09:30:49;22.30;99.90
4596;DHT22;2310;49.978;8.742;2023-07-31T09:34:50;22.20;99.90
4596;DHT22;2310;49.978;8.742;2023-07-31T09:38:52;21.70;99.90
4596;DHT22;2310;49.978;8.742;2023-07-31T09:42:59;22.30;99.90
4596;DHT22;2310;49.978;8.742;2023-07-31T09:47:00;22.80;99.90
4596;DHT22;2310;49.978;8.742;2023-07-31T09:51:04;23.50;99.90
4596;DHT22;2310;49.978;8.742;2023-07-31T09:55:05;23.60;99.90
4596;DHT22;2310;49.978;8.742;2023-07-31T09:59:07;24.20;99.90
4596;DHT22;2310;49.978;8.742;2023-07-31T10:03:11;24.60;99.90
4596;DHT22;2310;49.978;8.742;2023-07-31T10:07:13;24.90;95.70
4596;DHT22;2310;49.978;8.742;2023-07-31T10:11:16;25.30;91.20
4596;DHT22;2310;49.978;8.742;2023-07-31T10:15:18;25.60;84.70
4596;DHT22;2310;49.978;8.742;2023-07-31T10:19:21;25.30;81.10
4596;DHT22;2310;49.978;8.742;2023-07-31T10:23:23;25.00;84.00
4596;DHT22;2310;49.978;8.742;2023-07-31T10:27:26;24.40;90.70
4596;DHT22;2310;49.978;8.742;2023-07-31T10:31:28;24.70;91.40
4596;DHT22;2310;49.978;8.742;2023-07-31T10:35:30;24.40;89.20
4596;DHT22;2310;49.978;8.742;2023-07-31T10:39:36;25.00;88.70
4596;DHT22;2310;49.978;8.742;2023-07-31T10:43:38;24.90;83.50
4596;DHT22;2310;49.978;8.742;2023-07-31T10:47:43;25.30;80.40
4596;DHT22;2310;49.978;8.742;2023-07-31T10:51:47;25.30;83.00
4596;DHT22;2310;49.978;8.742;2023-07-31T10:55:49;26.20;73.70
4596;DHT22;2310;49.978;8.742;2023-07-31T11:00:00;27.00;69.80
4596;DHT22;2310;49.978;8.742;2023-07-31T11:03:57;27.00;65.60
4596;DHT22;2310;49.978;8.742;2023-07-31T11:07:59;27.00;66.80
4596;DHT22;2310;49.978;8.742;2023-07-31T11:12:00;27.00;63.30
4596;DHT22;2310;49.978;8.742;2023-07-31T11:16:02;26.90;63.40
4596;DHT22;2310;49.978;8.742;2023-07-31T11:20:04;26.10;66.00
4596;DHT22;2310;49.978;8.742;2023-07-31T11:24:05;25.40;69.00
4596;DHT22;2310;49.978;8.742;2023-07-31T11:28:09;24.90;74.90
4596;DHT22;2310;49.978;8.742;2023-07-31T11:32:16;25.10;76.30
4596;DHT22;2310;49.978;8.742;2023-07-31T11:36:20;25.20;78.60
4596;DHT22;2310;49.978;8.742;2023-07-31T11:40:21;25.10;79.50
4596;DHT22;2310;49.978;8.742;2023-07-31T11:44:25;26.10;76.10
4596;DHT22;2310;49.978;8.742;2023-07-31T11:48:30;26.80;69.20
4596;DHT22;2310;49.978;8.742;2023-07-31T11:52:36;26.70;66.40
4596;DHT22;2310;49.978;8.742;2023-07-31T11:56:36;26.30;67.00
4596;DHT22;2310;49.978;8.742;2023-07-31T12:00:39;26.20;67.90
4596;DHT22;2310;49.978;8.742;2023-07-31T12:04:40;25.60;71.30
4596;DHT22;2310;49.978;8.742;2023-07-31T12:08:42;24.80;83.50
4596;DHT22;2310;49.978;8.742;2023-07-31T12:12:43;24.90;83.90
4596;DHT22;2310;49.978;8.742;2023-07-31T12:16:44;24.90;87.90
4596;DHT22;2310;49.978;8.742;2023-07-31T12:20:48;25.00;89.10
4596;DHT22;2310;49.978;8.742;2023-07-31T12:24:52;25.50;83.90
4596;DHT22;2310;49.978;8.742;2023-07-31T12:28:55;25.90;80.20
4596;DHT22;2310;49.978;8.742;2023-07-31T12:32:57;25.20;83.20
4596;DHT22;2310;49.978;8.742;2023-07-31T12:36:58;25.20;86.00
4596;DHT22;2310;49.978;8.742;2023-07-31T12:41:00;25.40;82.30
4596;DHT22;2310;49.978;8.742;2023-07-31T12:45:01;24.80;82.90
4596;DHT22;2310;49.978;8.742;2023-07-31T12:49:03;24.60;89.80
4596;DHT22;2310;49.978;8.742;2023-07-31T12:53:05;24.30;91.20
4596;DHT22;2310;49.978;8.742;2023-07-31T12:57:06;24.00;95.50
4596;DHT22;2310;49.978;8.742;2023-07-31T13:01:08;24.30;92.90
4596;DHT22;2310;49.978;8.742;2023-07-31T13:05:09;24.20;93.20
4596;DHT22;2310;49.978;8.742;2023-07-31T13:09:11;24.20;95.40
4596;DHT22;2310;49.978;8.742;2023-07-31T13:13:12;24.60;93.30
4596;DHT22;2310;49.978;8.742;2023-07-31T13:17:13;24.70;92.90
4596;DHT22;2310;49.978;8.742;2023-07-31T13:21:15;24.70;92.70
4596;DHT22;2310;49.978;8.742;2023-07-31T13:25:16;24.50;92.90
4596;DHT22;2310;49.978;8.742;2023-07-31T13:29:18;24.80;92.90
4596;DHT22;2310;49.978;8.742;2023-07-31T13:33:19;24.50;93.20
4596;DHT22;2310;49.978;8.742;2023-07-31T13:37:22;24.40;94.90
4596;DHT22;2310;49.978;8.742;2023-07-31T13:41:23;24.50;95.20
4596;DHT22;2310;49.978;8.742;2023-07-31T13:45:25;24.20;95.20
4596;DHT22;2310;49.978;8.742;2023-07-31T13:49:27;24.10;95.10
4596;DHT22;2310;49.978;8.742;2023-07-31T13:53:28;24.30;93.90
4596;DHT22;2310;49.978;8.742;2023-07-31T13:57:29;24.60;92.30
4596;DHT22;2310;49.978;8.742;2023-07-31T14:01:31;24.30;93.60
4596;DHT22;2310;49.978;8.742;2023-07-31T14:05:32;24.20;93.80
4596;DHT22;2310;49.978;8.742;2023-07-31T14:09:34;24.30;94.20
4596;DHT22;2310;49.978;8.742;2023-07-31T14:13:35;24.50;93.90
4596;DHT22;2310;49.978;8.742;2023-07-31T14:17:37;24.40;95.20
4596;DHT22;2310;49.978;8.742;2023-07-31T14:21:38;24.40;94.30
4596;DHT22;2310;49.978;8.742;2023-07-31T14:25:40;24.20;96.20
4596;DHT22;2310;49.978;8.742;2023-07-31T14:29:41;24.10;97.40
4596;DHT22;2310;49.978;8.742;2023-07-31T14:33:42;24.20;96.50
4596;DHT22;2310;49.978;8.742;2023-07-31T14:37:44;24.20;97.30
4596;DHT22;2310;49.978;8.742;2023-07-31T14:41:46;23.80;99.40
4596;DHT22;2310;49.978;8.742;2023-07-31T14:45:49;23.70;99.90
4596;DHT22;2310;49.978;8.742;2023-07-31T14:49:50;23.60;99.90
4596;DHT22;2310;49.978;8.742;2023-07-31T14:53:52;23.50;99.90
4596;DHT22;2310;49.978;8.742;2023-07-31T14:57:53;23.50;99.90
4596;DHT22;2310;49.978;8.742;2023-07-31T15:01:54;23.40;99.90
4596;DHT22;2310;49.978;8.742;2023-07-31T15:05:56;23.50;99.90
4596;DHT22;2310;49.978;8.742;2023-07-31T15:09:57;23.40;99.90
4596;DHT22;2310;49.978;8.742;2023-07-31T15:13:58;23.30;99.90
4596;DHT22;2310;49.978;8.742;2023-07-31T15:18:00;23.40;99.90
4596;DHT22;2310;49.978;8.742;2023-07-31T15:22:02;23.40;99.90
4596;DHT22;2310;49.978;8.742;2023-07-31T15:26:04;23.60;99.90
4596;DHT22;2310;49.978;8.742;2023-07-31T15:30:06;23.40;99.90
4596;DHT22;2310;49.978;8.742;2023-07-31T15:34:08;23.40;99.90
4596;DHT22;2310;49.978;8.742;2023-07-31T15:38:09;23.30;99.90
4596;DHT22;2310;49.978;8.742;2023-07-31T15:42:10;23.30;99.90
4596;DHT22;2310;49.978;8.742;2023-07-31T15:46:12;23.30;99.90
4596;DHT22;2310;49.978;8.742;2023-07-31T15:50:14;23.30;99.90
4596;DHT22;2310;49.978;8.742;2023-07-31T15:54:15;23.40;99.90
4596;DHT22;2310;49.978;8.742;2023-07-31T15:58:17;23.30;99.90
4596;DHT22;2310;49.978;8.742;2023-07-31T16:02:19;23.40;99.90
4596;DHT22;2310;49.978;8.742;2023-07-31T16:06:20;23.20;99.90
4596;DHT22;2310;49.978;8.742;2023-07-31T16:10:22;23.50;99.90
4596;DHT22;2310;49.978;8.742;2023-07-31T16:14:23;23.70;98.00
4596;DHT22;2310;49.978;8.742;2023-07-31T16:18:24;23.70;97.90
4596;DHT22;2310;49.978;8.742;2023-07-31T16:22:26;23.70;99.70
4596;DHT22;2310;49.978;8.742;2023-07-31T16:26:28;23.60;99.90
4596;DHT22;2310;49.978;8.742;2023-07-31T16:30:29;23.60;99.00
4596;DHT22;2310;49.978;8.742;2023-07-31T16:34:31;23.80;99.30
4596;DHT22;2310;49.978;8.742;2023-07-31T16:38:32;23.80;98.60
4596;DHT22;2310;49.978;8.742;2023-07-31T16:42:34;24.00;98.70
4596;DHT22;2310;49.978;8.742;2023-07-31T16:46:35;24.10;98.60
4596;DHT22;2310;49.978;8.742;2023-07-31T16:50:37;23.80;99.90
4596;DHT22;2310;49.978;8.742;2023-07-31T16:54:38;23.40;99.90
4596;DHT22;2310;49.978;8.742;2023-07-31T16:58:39;22.90;99.90
4596;DHT22;2310;49.978;8.742;2023-07-31T17:02:41;22.70;99.90
4596;DHT22;2310;49.978;8.742;2023-07-31T17:06:42;22.40;99.90
4596;DHT22;2310;49.978;8.742;2023-07-31T17:10:44;22.50;99.90
4596;DHT22;2310;49.978;8.742;2023-07-31T17:14:46;22.50;99.90
4596;DHT22;2310;49.978;8.742;2023-07-31T17:18:47;22.60;99.90
4596;DHT22;2310;49.978;8.742;2023-07-31T17:22:49;22.30;99.90
4596;DHT22;2310;49.978;8.742;2023-07-31T17:26:51;22.10;99.90
4596;DHT22;2310;49.978;8.742;2023-07-31T17:30:52;22.10;99.90
4596;DHT22;2310;49.978;8.742;2023-07-31T17:34:53;22.20;99.90
4596;DHT22;2310;49.978;8.742;2023-07-31T17:38:55;22.10;99.90
4596;DHT22;2310;49.978;8.742;2023-07-31T17:42:56;21.80;99.90
4596;DHT22;2310;49.978;8.742;2023-07-31T17:46:58;22.20;99.90
4596;DHT22;2310;49.978;8.742;2023-07-31T17:51:00;22.20;99.90
4596;DHT22;2310;49.978;8.742;2023-07-31T17:55:02;21.40;99.90
4596;DHT22;2310;49.978;8.742;2023-07-31T17:59:04;21.60;99.90
4596;DHT22;2310;49.978;8.742;2023-07-31T18:03:06;21.50;99.90
4596;DHT22;2310;49.978;8.742;2023-07-31T18:07:09;21.50;99.90
4596;DHT22;2310;49.978;8.742;2023-07-31T18:11:10;21.50;99.90
4596;DHT22;2310;49.978;8.742;2023-07-31T18:15:12;21.30;99.90
4596;DHT22;2310;49.978;8.742;2023-07-31T18:19:13;21.10;99.90
4596;DHT22;2310;49.978;8.742;2023-07-31T18:23:14;20.80;99.90
4596;DHT22;2310;49.978;8.742;2023-07-31T18:27:16;20.70;99.90
4596;DHT22;2310;49.978;8.742;2023-07-31T18:31:19;20.90;99.90
4596;DHT22;2310;49.978;8.742;2023-07-31T18:35:20;20.80;99.90
4596;DHT22;2310;49.978;8.742;2023-07-31T18:39:22;20.50;99.90
4596;DHT22;2310;49.978;8.742;2023-07-31T18:43:23;20.60;99.90
4596;DHT22;2310;49.978;8.742;2023-07-31T18:47:25;20.30;99.90
4596;DHT22;2310;49.978;8.742;2023-07-31T18:51:26;20.40;99.90
4596;DHT22;2310;49.978;8.742;2023-07-31T18:55:28;20.40;99.90
4596;DHT22;2310;49.978;8.742;2023-07-31T18:59:29;20.50;99.90
4596;DHT22;2310;49.978;8.742;2023-07-31T19:03:31;20.20;99.90
4596;DHT22;2310;49.978;8.742;2023-07-31T19:07:32;20.10;99.90
4596;DHT22;2310;49.978;8.742;2023-07-31T19:11:33;20.00;99.90
4596;DHT22;2310;49.978;8.742;2023-07-31T19:15:35;20.10;99.90
4596;DHT22;2310;49.978;8.742;2023-07-31T19:19:36;20.00;99.90
4596;DHT22;2310;49.978;8.742;2023-07-31T19:23:38;19.80;99.90
4596;DHT22;2310;49.978;8.742;2023-07-31T19:27:39;19.80;99.90
4596;DHT22;2310;49.978;8.742;2023-07-31T19:31:43;19.80;99.90
4596;DHT22;2310;49.978;8.742;2023-07-31T19:35:52;19.70;99.90
4596;DHT22;2310;49.978;8.742;2023-07-31T19:39:54;19.80;99.90
4596;DHT22;2310;49.978;8.742;2023-07-31T19:43:55;19.80;99.90
4596;DHT22;2310;49.978;8.742;2023-07-31T19:47:57;19.80;99.90
4596;DHT22;2310;49.978;8.742;2023-07-31T19:51:58;19.70;99.90
4596;DHT22;2310;49.978;8.742;2023-07-31T19:55:59;19.50;99.90
4596;DHT22;2310;49.978;8.742;2023-07-31T20:00:01;19.50;99.90
4596;DHT22;2310;49.978;8.742;2023-07-31T20:04:04;19.70;99.90
4596;DHT22;2310;49.978;8.742;2023-07-31T20:08:06;19.80;99.90
4596;DHT22;2310;49.978;8.742;2023-07-31T20:12:08;19.60;99.90
4596;DHT22;2310;49.978;8.742;2023-07-31T20:16:09;19.80;99.90
4596;DHT22;2310;49.978;8.742;2023-07-31T20:20:11;19.60;99.90
4596;DHT22;2310;49.978;8.742;2023-07-31T20:24:12;19.70;99.90
4596;DHT22;2310;49.978;8.742;2023-07-31T20:28:14;19.80;99.90
4596;DHT22;2310;49.978;8.742;2023-07-31T20:32:15;19.90;99.90
4596;DHT22;2310;49.978;8.742;2023-07-31T20:36:17;19.70;99.90
4596;DHT22;2310;49.978;8.742;2023-07-31T20:40:18;19.60;99.90
4596;DHT22;2310;49.978;8.742;2023-07-31T20:44:20;19.40;99.90
4596;DHT22;2310;49.978;8.742;2023-07-31T20:48:21;19.20;99.90
4596;DHT22;2310;49.978;8.742;2023-07-31T20:52:22;19.20;99.90
4596;DHT22;2310;49.978;8.742;2023-07-31T20:56:24;19.00;99.90
4596;DHT22;2310;49.978;8.742;2023-07-31T21:00:25;18.90;99.90
4596;DHT22;2310;49.978;8.742;2023-07-31T21:04:26;18.70;99.90
4596;DHT22;2310;49.978;8.742;2023-07-31T21:08:28;18.60;99.90
4596;DHT22;2310;49.978;8.742;2023-07-31T21:12:30;18.70;99.90
4596;DHT22;2310;49.978;8.742;2023-07-31T21:16:31;18.80;99.90
4596;DHT22;2310;49.978;8.742;2023-07-31T21:20:33;18.60;99.90
4596;DHT22;2310;49.978;8.742;2023-07-31T21:24:34;18.80;99.90
4596;DHT22;2310;49.978;8.742;2023-07-31T21:28:36;18.80;99.90
4596;DHT22;2310;49.978;8.742;2023-07-31T21:32:37;18.70;99.90
4596;DHT22;2310;49.978;8.742;2023-07-31T21:36:39;18.90;99.90
4596;DHT22;2310;49.978;8.742;2023-07-31T21:40:41;19.10;99.90
4596;DHT22;2310;49.978;8.742;2023-07-31T21:44:42;19.10;99.90
4596;DHT22;2310;49.978;8.742;2023-07-31T21:48:43;19.20;99.90
4596;DHT22;2310;49.978;8.742;2023-07-31T21:52:45;19.00;99.90
4596;DHT22;2310;49.978;8.742;2023-07-31T21:56:47;18.90;99.90
4596;DHT22;2310;49.978;8.742;2023-07-31T22:00:48;18.60;99.90
4596;DHT22;2310;49.978;8.742;2023-07-31T22:04:50;18.70;99.90
4596;DHT22;2310;49.978;8.742;2023-07-31T22:08:51;18.70;99.90
4596;DHT22;2310;49.978;8.742;2023-07-31T22:12:52;18.70;99.90
4596;DHT22;2310;49.978;8.742;2023-07-31T22:16:54;18.60;99.90
4596;DHT22;2310;49.978;8.742;2023-07-31T22:20:56;18.60;99.90
4596;DHT22;2310;49.978;8.742;2023-07-31T22:24:57;18.40;99.90
4596;DHT22;2310;49.978;8.742;2023-07-31T22:28:58;18.30;99.90
4596;DHT22;2310;49.978;8.742;2023-07-31T22:33:00;18.20;99.90
4596;DHT22;2310;49.978;8.742;2023-07-31T22:37:01;18.40;99.90
4596;DHT22;2310;49.978;8.742;2023-07-31T22:41:02;18.60;99.90
4596;DHT22;2310;49.978;8.742;2023-07-31T22:45:06;18.40;99.90
4596;DHT22;2310;49.978;8.742;2023-07-31T22:49:07;18.40;99.90
4596;DHT22;2310;49.978;8.742;2023-07-31T22:53:09;18.20;99.90
4596;DHT22;2310;49.978;8.742;2023-07-31T22:57:10;18.40;99.90
4596;DHT22;2310;49.978;8.742;2023-07-31T23:01:11;18.70;99.90
4596;DHT22;2310;49.978;8.742;2023-07-31T23:05:13;18.60;99.90
4596;DHT22;2310;49.978;8.742;2023-07-31T23:09:14;18.60;99.90
4596;DHT22;2310;49.978;8.742;2023-07-31T23:13:16;18.60;99.90
4596;DHT22;2310;49.978;8.742;2023-07-31T23:17:18;18.70;99.90
4596;DHT22;2310;49.978;8.742;2023-07-31T23:21:19;18.70;99.90
4596;DHT22;2310;49.978;8.742;2023-07-31T23:25:21;18.90;99.90
4596;DHT22;2310;49.978;8.742;2023-07-31T23:29:22;18.70;99.90
4596;DHT22;2310;49.978;8.742;2023-07-31T23:33:23;18.70;99.90
4596;DHT22;2310;49.978;8.742;2023-07-31T23:37:25;18.60;99.90
4596;DHT22;2310;49.978;8.742;2023-07-31T23:41:26;18.70;99.90
4596;DHT22;2310;49.978;8.742;2023-07-31T23:45:28;18.60;99.90
4596;DHT22;2310;49.978;8.742;2023-07-31T23:49:29;18.60;99.90
4596;DHT22;2310;49.978;8.742;2023-07-31T23:53:31;18.60;99.90
4596;DHT22;2310;49.978;8.742;2023-07-31T23:57:34;18.70;99.90
